Time;durP1;ratioP1;P1;durP2;ratioP2;P2;SDS_P1;SDS_P2;PMS_P1;PMS_P2;Temp;Humidity;BMP_temperature;BMP_pressure;BME280_temperature;BME280_humidity;BME280_pressure;Samples;Min_cycle;Max_cycle;Signal;HPM_P1;HPM_P2
2023/01/02 00:02:26;;;;;;;70.47;46.25;;;;;;;;;;4947059;28;20346;-70
2023/01/02 00:04:54;;;;;;;70.78;46.95;;;;;;;;;;4946949;28;20039;-69
2023/01/02 00:07:22;;;;;;;76.47;50.70;;;;;;;;;;4947612;28;20543;-71
2023/01/02 00:09:47;;;;;;;76.40;51.72;;;;;;;;;;4929498;28;20038;-70
2023/01/02 00:12:13;;;;;;;94.55;63.85;;;;;;;;;;4947044;28;20582;-69
2023/01/02 00:14:38;;;;;;;79.00;55.88;;;;;;;;;;4946586;28;20038;-69
2023/01/02 00:17:06;;;;;;;81.82;57.83;;;;;;;;;;4946682;28;20068;-69
2023/01/02 00:19:31;;;;;;;92.30;62.13;;;;;;;;;;4928782;28;20684;-70
2023/01/02 00:21:59;;;;;;;76.30;56.72;;;;;;;;;;4929743;28;20043;-70
2023/01/02 00:24:26;;;;;;;71.18;50.63;;;;;;;;;;4929943;28;20582;-71
2023/01/02 00:26:54;;;;;;;77.32;51.72;;;;;;;;;;4947433;28;20096;-70
2023/01/02 00:29:19;;;;;;;82.40;56.90;;;;;;;;;;4930413;28;20078;-70
2023/01/02 00:31:47;;;;;;;77.38;52.75;;;;;;;;;;4947108;28;20138;-70
2023/01/02 00:34:15;;;;;;;73.32;45.60;;;;;;;;;;4946848;28;20362;-70
2023/01/02 00:36:43;;;;;;;58.20;42.00;;;;;;;;;;4947500;28;20108;-70
2023/01/02 00:39:11;;;;;;;65.00;45.95;;;;;;;;;;4929389;28;20415;-70
2023/01/02 00:41:36;;;;;;;59.03;40.33;;;;;;;;;;4928005;28;20031;-70
2023/01/02 00:44:01;;;;;;;52.67;33.47;;;;;;;;;;4943759;28;20393;-71
2023/01/02 00:46:29;;;;;;;54.75;30.55;;;;;;;;;;4943054;28;20055;-71
2023/01/02 00:48:54;;;;;;;42.60;30.10;;;;;;;;;;4942975;28;20544;-71
2023/01/02 00:51:19;;;;;;;40.17;25.27;;;;;;;;;;4942142;28;20043;-71
2023/01/02 00:53:45;;;;;;;46.33;26.27;;;;;;;;;;4942302;28;20031;-70
2023/01/02 00:56:12;;;;;;;40.75;23.75;;;;;;;;;;4942044;28;20053;-71
2023/01/02 00:58:38;;;;;;;43.22;26.38;;;;;;;;;;4942231;28;20054;-70
2023/01/02 01:01:03;;;;;;;40.60;25.58;;;;;;;;;;4941734;28;20161;-70
2023/01/02 01:03:29;;;;;;;49.38;30.80;;;;;;;;;;4942376;28;20027;-70
2023/01/02 01:05:54;;;;;;;45.10;25.17;;;;;;;;;;4942469;28;20042;-70
2023/01/02 01:08:19;;;;;;;46.10;23.88;;;;;;;;;;4942782;28;20372;-71
2023/01/02 01:10:45;;;;;;;55.00;27.10;;;;;;;;;;4942920;28;20143;-70
2023/01/02 01:13:12;;;;;;;48.10;23.73;;;;;;;;;;4926326;28;20039;-69
2023/01/02 01:15:38;;;;;;;48.72;24.10;;;;;;;;;;4942131;28;20078;-70
2023/01/02 01:18:06;;;;;;;47.92;21.63;;;;;;;;;;4942537;28;20053;-70
2023/01/02 01:20:31;;;;;;;44.65;22.35;;;;;;;;;;4942091;28;20038;-70
2023/01/02 01:22:59;;;;;;;40.63;20.77;;;;;;;;;;4909625;28;20497;-69
2023/01/02 01:25:24;;;;;;;39.15;20.95;;;;;;;;;;4942836;28;20947;-70
2023/01/02 01:27:51;;;;;;;39.75;21.15;;;;;;;;;;4925221;28;20027;-72
2023/01/02 01:30:17;;;;;;;33.78;19.17;;;;;;;;;;4942882;28;20042;-71
2023/01/02 01:32:42;;;;;;;41.88;19.10;;;;;;;;;;4909359;28;20055;-71
2023/01/02 01:35:07;;;;;;;41.65;21.48;;;;;;;;;;4941312;28;20299;-72
2023/01/02 01:37:32;;;;;;;42.58;21.23;;;;;;;;;;4941647;28;20045;-71
2023/01/02 01:39:58;;;;;;;38.10;22.50;;;;;;;;;;4941673;28;20041;-71
2023/01/02 01:42:25;;;;;;;43.72;20.17;;;;;;;;;;4941798;28;20142;-72
2023/01/02 01:44:53;;;;;;;36.90;19.42;;;;;;;;;;4940866;28;20118;-72
2023/01/02 01:47:31;;;;;;;46.90;22.63;;;;;;;;;;4932969;28;20142;-72
2023/01/02 01:50:02;;;;;;;39.38;18.58;;;;;;;;;;4932391;28;20043;-72
2023/01/02 01:52:28;;;;;;;25.83;14.48;;;;;;;;;;4936321;28;20035;-72
2023/01/02 01:55:00;;;;;;;29.52;14.55;;;;;;;;;;4937195;28;20489;-73
2023/01/02 01:57:27;;;;;;;29.50;14.40;;;;;;;;;;4941040;28;20050;-73
2023/01/02 01:59:55;;;;;;;34.75;15.65;;;;;;;;;;4939714;28;20037;-73
2023/01/02 02:02:21;;;;;;;31.08;15.10;;;;;;;;;;4941170;28;20280;-73
2023/01/02 02:04:46;;;;;;;32.45;15.90;;;;;;;;;;4923581;28;20031;-73
2023/01/02 02:07:12;;;;;;;34.63;16.38;;;;;;;;;;4924076;28;20960;-74
2023/01/02 02:09:44;;;;;;;29.15;17.13;;;;;;;;;;4923754;28;20817;-74
2023/01/02 02:12:11;;;;;;;33.03;17.77;;;;;;;;;;4922833;28;20027;-73
2023/01/02 02:14:36;;;;;;;32.45;16.23;;;;;;;;;;4941270;28;20467;-72
2023/01/02 02:17:13;;;;;;;36.55;16.75;;;;;;;;;;4922942;28;20039;-72
2023/01/02 02:19:42;;;;;;;33.50;16.25;;;;;;;;;;4941203;28;20558;-73
2023/01/02 02:22:25;;;;;;;39.22;16.92;;;;;;;;;;4923021;28;20150;-74
2023/01/02 02:24:50;;;;;;;36.08;17.42;;;;;;;;;;4940825;28;20110;-74
2023/01/02 02:27:24;;;;;;;35.78;19.10;;;;;;;;;;4923659;28;20035;-74
2023/01/02 02:30:09;;;;;;;46.78;19.50;;;;;;;;;;4923200;28;20480;-72
2023/01/02 02:32:39;;;;;;;36.70;19.20;;;;;;;;;;4923416;28;20788;-73
2023/01/02 02:35:14;;;;;;;38.65;19.40;;;;;;;;;;4940877;28;20038;-72
2023/01/02 02:37:42;;;;;;;38.53;20.25;;;;;;;;;;4940573;28;20066;-73
2023/01/02 02:40:26;;;;;;;40.63;20.00;;;;;;;;;;4923141;28;20457;-73
2023/01/02 02:43:23;;;;;;;40.90;19.92;;;;;;;;;;4940838;28;20263;-73
2023/01/02 02:46:00;;;;;;;40.35;18.33;;;;;;;;;;4974417;28;20026;-71
2023/01/02 02:48:30;;;;;;;29.40;16.60;;;;;;;;;;4939560;28;20269;-74
2023/01/02 02:51:01;;;;;;;28.15;15.18;;;;;;;;;;5006547;28;20039;-71
2023/01/02 02:53:37;;;;;;;26.70;15.35;;;;;;;;;;4923396;28;20039;-69
2023/01/02 02:56:03;;;;;;;33.17;15.85;;;;;;;;;;4939954;28;20035;-69
2023/01/02 02:58:29;;;;;;;32.83;16.50;;;;;;;;;;4940742;28;20402;-69
2023/01/02 03:01:06;;;;;;;33.83;17.33;;;;;;;;;;4940269;28;20346;-69
2023/01/02 03:03:36;;;;;;;32.95;18.75;;;;;;;;;;4940172;28;20515;-70
2023/01/02 03:06:17;;;;;;;42.13;19.75;;;;;;;;;;4938868;28;20627;-70
2023/01/02 03:08:45;;;;;;;46.80;19.58;;;;;;;;;;4922555;28;20026;-70
2023/01/02 03:11:10;;;;;;;49.55;20.80;;;;;;;;;;4922751;28;20118;-70
2023/01/02 03:13:42;;;;;;;57.58;22.67;;;;;;;;;;4940490;28;20038;-70
2023/01/02 03:16:17;;;;;;;61.70;22.98;;;;;;;;;;4940358;28;20548;-70
2023/01/02 03:18:52;;;;;;;60.22;21.77;;;;;;;;;;4940096;28;20121;-71
2023/01/02 03:21:21;;;;;;;54.60;21.30;;;;;;;;;;4940196;28;20050;-70
2023/01/02 03:23:47;;;;;;;51.92;21.13;;;;;;;;;;4906857;28;20039;-73
2023/01/02 03:26:14;;;;;;;57.25;21.02;;;;;;;;;;4922942;28;20594;-70
2023/01/02 03:28:41;;;;;;;44.88;20.77;;;;;;;;;;4940093;28;20110;-69
2023/01/02 03:31:10;;;;;;;50.63;22.08;;;;;;;;;;4939916;28;20042;-70
2023/01/02 03:33:40;;;;;;;40.30;19.98;;;;;;;;;;4922631;28;20421;-69
2023/01/02 03:36:10;;;;;;;36.45;21.30;;;;;;;;;;5006512;28;20077;-69
2023/01/02 03:38:38;;;;;;;42.13;21.70;;;;;;;;;;4922530;28;20161;-70
2023/01/02 03:41:08;;;;;;;46.65;22.20;;;;;;;;;;4940563;28;20520;-70
2023/01/02 03:43:34;;;;;;;48.70;21.27;;;;;;;;;;4940788;28;20568;-69
2023/01/02 03:46:09;;;;;;;51.97;23.55;;;;;;;;;;4940652;28;20116;-70
2023/01/02 03:48:47;;;;;;;47.67;21.05;;;;;;;;;;4922571;28;20425;-69
2023/01/02 03:51:12;;;;;;;61.30;21.77;;;;;;;;;;4938990;28;20591;-68
2023/01/02 03:53:38;;;;;;;54.95;22.17;;;;;;;;;;4939651;28;20073;-69
2023/01/02 03:56:03;;;;;;;47.33;19.80;;;;;;;;;;4922968;28;20476;-69
2023/01/02 03:58:42;;;;;;;53.63;21.63;;;;;;;;;;4939677;28;20042;-68
2023/01/02 04:01:10;;;;;;;60.83;22.58;;;;;;;;;;4939828;28;20065;-68
2023/01/02 04:03:39;;;;;;;52.00;21.73;;;;;;;;;;5004911;28;20497;-70
2023/01/02 04:06:15;;;;;;;63.83;22.45;;;;;;;;;;4939742;28;20473;-73
2023/01/02 04:08:45;;;;;;;68.63;22.83;;;;;;;;;;4939983;28;20194;-70
2023/01/02 04:11:12;;;;;;;61.25;21.92;;;;;;;;;;4939503;28;20093;-70
2023/01/02 04:13:40;;;;;;;83.30;24.27;;;;;;;;;;4939534;28;20480;-70
2023/01/02 04:16:11;;;;;;;75.30;24.00;;;;;;;;;;4940540;28;20497;-70
2023/01/02 04:18:44;;;;;;;56.90;20.52;;;;;;;;;;4924974;28;20566;-69
2023/01/02 04:21:12;;;;;;;42.78;17.67;;;;;;;;;;4924918;28;20031;-68
2023/01/02 04:23:39;;;;;;;33.78;14.00;;;;;;;;;;4941080;28;20041;-69
2023/01/02 04:26:15;;;;;;;31.45;12.32;;;;;;;;;;4925750;28;20104;-68
2023/01/02 04:28:40;;;;;;;26.67;9.52;;;;;;;;;;4943126;28;20081;-69
2023/01/02 04:31:20;;;;;;;30.63;8.43;;;;;;;;;;4943314;28;20043;-69
2023/01/02 04:33:50;;;;;;;27.27;8.43;;;;;;;;;;4942911;28;20118;-68
2023/01/02 04:36:16;;;;;;;38.60;7.57;;;;;;;;;;4942454;28;20136;-69
2023/01/02 04:38:45;;;;;;;36.35;6.50;;;;;;;;;;4943003;28;20185;-68
2023/01/02 04:41:31;;;;;;;27.23;6.35;;;;;;;;;;4943100;28;20035;-68
2023/01/02 04:43:56;;;;;;;21.60;4.78;;;;;;;;;;4942322;28;20043;-68
2023/01/02 04:46:22;;;;;;;20.20;4.50;;;;;;;;;;4925246;28;20031;-69
2023/01/02 04:48:48;;;;;;;21.52;5.07;;;;;;;;;;4941920;28;20341;-69
2023/01/02 04:51:13;;;;;;;26.08;4.22;;;;;;;;;;4942172;28;20043;-68
2023/01/02 04:53:38;;;;;;;24.35;3.70;;;;;;;;;;4941810;28;20042;-68
2023/01/02 04:56:03;;;;;;;17.67;3.60;;;;;;;;;;4942531;28;20035;-68
2023/01/02 04:58:31;;;;;;;19.38;2.95;;;;;;;;;;4942297;28;20076;-69
2023/01/02 05:00:57;;;;;;;12.45;2.67;;;;;;;;;;4924654;28;20666;-69
2023/01/02 05:03:22;;;;;;;14.23;2.20;;;;;;;;;;4942378;28;20516;-69
2023/01/02 05:05:48;;;;;;;19.58;2.60;;;;;;;;;;4942241;28;20116;-68
2023/01/02 05:08:13;;;;;;;14.68;2.13;;;;;;;;;;4924404;28;20027;-69
2023/01/02 05:10:40;;;;;;;13.88;1.70;;;;;;;;;;4941856;28;25963;-69
2023/01/02 05:13:08;;;;;;;11.07;1.40;;;;;;;;;;4908650;28;20329;-70
2023/01/02 05:15:33;;;;;;;15.23;1.70;;;;;;;;;;4942637;28;20422;-74
2023/01/02 05:17:58;;;;;;;16.52;2.13;;;;;;;;;;4923933;28;20055;-74
2023/01/02 05:20:24;;;;;;;19.58;1.50;;;;;;;;;;4924573;28;20065;-74
2023/01/02 05:25:34;;;;;;;10.10;2.10;;;;;;;;;;4941824;28;20084;-73
2023/01/02 05:28:03;;;;;;;15.45;2.20;;;;;;;;;;4940696;28;20097;-74
2023/01/02 05:30:28;;;;;;;14.10;1.90;;;;;;;;;;4924410;28;20031;-74
2023/01/02 05:32:54;;;;;;;18.00;1.65;;;;;;;;;;4941736;28;20409;-73
2023/01/02 05:35:20;;;;;;;20.30;1.88;;;;;;;;;;4924383;28;20038;-74
2023/01/02 05:37:45;;;;;;;16.55;2.10;;;;;;;;;;4923810;28;20145;-73
2023/01/02 05:40:11;;;;;;;11.80;1.75;;;;;;;;;;4942243;28;20122;-73
2023/01/02 05:42:36;;;;;;;16.60;1.70;;;;;;;;;;4941452;28;20624;-73
2023/01/02 05:45:04;;;;;;;12.90;1.88;;;;;;;;;;4941845;28;20069;-74
2023/01/02 05:47:31;;;;;;;27.23;2.42;;;;;;;;;;4940952;28;20118;-73
2023/01/02 05:49:57;;;;;;;14.18;1.60;;;;;;;;;;4941322;28;20081;-74
2023/01/02 05:52:22;;;;;;;16.15;2.42;;;;;;;;;;4941161;28;20113;-73
2023/01/02 05:54:47;;;;;;;19.95;1.92;;;;;;;;;;4941320;28;20522;-75
2023/01/02 05:57:12;;;;;;;14.18;1.52;;;;;;;;;;4941681;28;20481;-72
2023/01/02 05:59:38;;;;;;;15.85;1.85;;;;;;;;;;4940490;28;20081;-73
2023/01/02 06:02:05;;;;;;;18.13;2.45;;;;;;;;;;4941726;28;20035;-74
2023/01/02 06:04:31;;;;;;;23.02;2.30;;;;;;;;;;4941426;28;20096;-73
2023/01/02 06:06:58;;;;;;;12.25;1.83;;;;;;;;;;4924084;28;20043;-73
2023/01/02 06:09:26;;;;;;;26.38;2.00;;;;;;;;;;5023573;28;20095;-73
2023/01/02 06:11:53;;;;;;;11.75;2.33;;;;;;;;;;4941526;28;20846;-73
2023/01/02 06:14:22;;;;;;;18.70;2.05;;;;;;;;;;4941153;28;20042;-73
2023/01/02 06:16:50;;;;;;;21.35;2.97;;;;;;;;;;4941195;28;20059;-73
2023/01/02 06:19:17;;;;;;;19.17;2.75;;;;;;;;;;4949675;28;20492;-73
2023/01/02 06:21:43;;;;;;;20.13;2.50;;;;;;;;;;4941426;28;20035;-72
2023/01/02 06:24:10;;;;;;;26.92;2.45;;;;;;;;;;4923733;28;20031;-72
2023/01/02 06:26:38;;;;;;;26.70;2.80;;;;;;;;;;4924307;28;20123;-73
2023/01/02 06:29:03;;;;;;;20.17;2.72;;;;;;;;;;4941641;28;20047;-72
2023/01/02 06:31:29;;;;;;;23.55;3.33;;;;;;;;;;4940542;28;20569;-73
2023/01/02 06:33:55;;;;;;;21.50;3.13;;;;;;;;;;4941081;28;20264;-73
2023/01/02 06:36:21;;;;;;;25.70;3.00;;;;;;;;;;4940588;28;20031;-73
2023/01/02 06:38:46;;;;;;;23.05;2.55;;;;;;;;;;4941460;28;20112;-74
2023/01/02 06:41:12;;;;;;;27.63;2.75;;;;;;;;;;4940414;28;20033;-73
2023/01/02 06:43:45;;;;;;;24.13;3.03;;;;;;;;;;4923760;28;20674;-73
2023/01/02 06:46:10;;;;;;;24.33;2.45;;;;;;;;;;4936116;28;20833;-74
2023/01/02 06:48:36;;;;;;;17.25;2.95;;;;;;;;;;4904739;28;20031;-73
2023/01/02 06:51:05;;;;;;;20.20;2.60;;;;;;;;;;4923260;28;20097;-73
2023/01/02 06:53:33;;;;;;;23.08;2.25;;;;;;;;;;4920757;28;20031;-73
2023/01/02 06:56:01;;;;;;;24.77;2.58;;;;;;;;;;4931473;28;20848;-72
2023/01/02 06:58:28;;;;;;;22.73;2.83;;;;;;;;;;4940576;28;20180;-73
2023/01/02 07:00:53;;;;;;;16.52;2.20;;;;;;;;;;4940320;28;20034;-73
2023/01/02 07:03:21;;;;;;;19.85;2.38;;;;;;;;;;4926461;28;20086;-73
2023/01/02 07:05:47;;;;;;;21.50;2.70;;;;;;;;;;4940531;28;20102;-72
2023/01/02 07:08:12;;;;;;;22.35;2.30;;;;;;;;;;4940315;28;20046;-72
2023/01/02 07:10:38;;;;;;;15.50;2.00;;;;;;;;;;4940366;28;20235;-72
2023/01/02 07:13:03;;;;;;;13.90;1.73;;;;;;;;;;4923004;28;20785;-73
2023/01/02 07:15:29;;;;;;;16.70;1.80;;;;;;;;;;4940180;28;20038;-74
2023/01/02 07:17:54;;;;;;;17.27;2.28;;;;;;;;;;4923619;28;20104;-72
2023/01/02 07:20:21;;;;;;;12.68;1.83;;;;;;;;;;4922698;28;20768;-72
2023/01/02 07:22:50;;;;;;;20.67;2.40;;;;;;;;;;4940488;28;20328;-75
2023/01/02 07:25:16;;;;;;;10.52;1.90;;;;;;;;;;4940045;28;20035;-73
2023/01/02 07:27:41;;;;;;;19.92;1.92;;;;;;;;;;4940323;28;20046;-74
2023/01/02 07:30:09;;;;;;;15.77;2.30;;;;;;;;;;4939547;28;20481;-73
2023/01/02 07:32:34;;;;;;;23.73;2.50;;;;;;;;;;4922351;28;20143;-74
2023/01/02 07:35:00;;;;;;;20.20;2.58;;;;;;;;;;4940181;28;20047;-73
2023/01/02 07:37:25;;;;;;;20.45;2.38;;;;;;;;;;4940320;28;20335;-73
2023/01/02 07:39:52;;;;;;;25.25;2.63;;;;;;;;;;4939993;28;20113;-73
2023/01/02 07:42:18;;;;;;;16.75;2.15;;;;;;;;;;4939936;28;20196;-73
2023/01/02 07:44:45;;;;;;;17.58;2.50;;;;;;;;;;4940195;28;20042;-73
2023/01/02 07:47:10;;;;;;;18.17;3.15;;;;;;;;;;4939525;28;20145;-74
2023/01/02 07:49:36;;;;;;;15.80;2.50;;;;;;;;;;4939360;28;20106;-74
2023/01/02 07:52:01;;;;;;;21.63;3.38;;;;;;;;;;4939897;28;20038;-73
2023/01/02 07:54:26;;;;;;;20.40;2.95;;;;;;;;;;4929004;28;20057;-74
2023/01/02 07:56:54;;;;;;;16.88;2.80;;;;;;;;;;4943376;28;20187;-75
2023/01/02 07:59:20;;;;;;;20.52;3.10;;;;;;;;;;4943410;28;20062;-74
2023/01/02 08:01:45;;;;;;;17.88;3.55;;;;;;;;;;4925691;28;20113;-74
2023/01/02 08:04:10;;;;;;;21.38;3.83;;;;;;;;;;4943418;28;20031;-73
2023/01/02 08:06:38;;;;;;;32.17;4.25;;;;;;;;;;4925273;28;20084;-74
2023/01/02 08:09:06;;;;;;;22.80;3.22;;;;;;;;;;4943339;28;20441;-72
2023/01/02 08:11:31;;;;;;;22.05;3.13;;;;;;;;;;4943199;28;20035;-74
2023/01/02 08:13:56;;;;;;;30.23;3.53;;;;;;;;;;4943291;28;20034;-74
2023/01/02 08:16:22;;;;;;;24.80;3.08;;;;;;;;;;4942699;28;20546;-74
2023/01/02 08:18:56;;;;;;;25.13;3.28;;;;;;;;;;4942214;28;20103;-73
2023/01/02 08:21:22;;;;;;;22.60;3.03;;;;;;;;;;4942811;28;20710;-74
2023/01/02 08:23:48;;;;;;;23.05;3.45;;;;;;;;;;4943334;28;20353;-75
2023/01/02 08:26:14;;;;;;;20.75;2.42;;;;;;;;;;4942894;28;20041;-74
2023/01/02 08:28:41;;;;;;;18.15;2.45;;;;;;;;;;4925768;28;20700;-74
2023/01/02 08:31:12;;;;;;;24.00;2.90;;;;;;;;;;4943239;28;20031;-75
2023/01/02 08:33:37;;;;;;;22.88;2.78;;;;;;;;;;4937870;28;20034;-74
2023/01/02 08:36:02;;;;;;;16.33;2.42;;;;;;;;;;4943676;28;20093;-75
2023/01/02 08:38:28;;;;;;;21.33;2.85;;;;;;;;;;4941084;28;20330;-74
2023/01/02 08:40:53;;;;;;;20.17;2.40;;;;;;;;;;4943209;28;20196;-73
2023/01/02 08:43:18;;;;;;;20.02;2.38;;;;;;;;;;4942683;28;20046;-73
2023/01/02 08:45:43;;;;;;;30.17;4.03;;;;;;;;;;4925023;28;20043;-74
2023/01/02 08:48:12;;;;;;;18.35;2.45;;;;;;;;;;4924611;28;20509;-73
2023/01/02 08:50:37;;;;;;;32.08;2.70;;;;;;;;;;4924909;28;20138;-74
2023/01/02 08:53:02;;;;;;;20.25;2.70;;;;;;;;;;4929869;28;20563;-74
2023/01/02 08:55:28;;;;;;;21.45;2.80;;;;;;;;;;4943082;28;20057;-74
2023/01/02 08:57:53;;;;;;;15.23;2.17;;;;;;;;;;4941933;28;20043;-74
2023/01/02 09:00:19;;;;;;;28.77;2.60;;;;;;;;;;4942740;28;20038;-74
2023/01/02 09:02:46;;;;;;;19.13;2.70;;;;;;;;;;4941598;28;20096;-74
2023/01/02 09:05:12;;;;;;;26.05;3.80;;;;;;;;;;4942879;28;20039;-73
2023/01/02 09:07:37;;;;;;;24.10;2.72;;;;;;;;;;4942755;28;20030;-74
2023/01/02 09:10:03;;;;;;;25.45;3.45;;;;;;;;;;4925649;28;20321;-73
2023/01/02 09:12:28;;;;;;;29.08;3.10;;;;;;;;;;4942569;28;20031;-73
2023/01/02 09:14:56;;;;;;;35.97;3.65;;;;;;;;;;4942644;28;20107;-74
2023/01/02 09:17:23;;;;;;;36.13;4.35;;;;;;;;;;4943301;28;20077;-74
2023/01/02 09:19:49;;;;;;;21.13;2.55;;;;;;;;;;4942771;28;20523;-74
2023/01/02 09:22:15;;;;;;;28.77;3.13;;;;;;;;;;4908844;28;20140;-74
2023/01/02 09:24:40;;;;;;;25.40;3.20;;;;;;;;;;4942972;28;20119;-73
2023/01/02 09:27:06;;;;;;;29.50;3.20;;;;;;;;;;4942648;28;20083;-74
2023/01/02 09:29:33;;;;;;;26.92;3.80;;;;;;;;;;4924628;28;20640;-73
2023/01/02 09:32:01;;;;;;;24.48;3.13;;;;;;;;;;4925439;28;20026;-73
2023/01/02 09:34:27;;;;;;;27.85;3.05;;;;;;;;;;4942356;28;20039;-73
2023/01/02 09:36:52;;;;;;;21.33;3.42;;;;;;;;;;4941093;28;20390;-73
2023/01/02 09:39:19;;;;;;;24.15;2.80;;;;;;;;;;4942520;28;20144;-73
2023/01/02 09:41:50;;;;;;;24.70;3.60;;;;;;;;;;4925036;28;20026;-74
2023/01/02 09:44:21;;;;;;;21.85;2.67;;;;;;;;;;4936770;28;20027;-73
2023/01/02 09:46:52;;;;;;;30.27;3.65;;;;;;;;;;4940419;28;20525;-74
2023/01/02 09:49:20;;;;;;;29.17;3.67;;;;;;;;;;4942176;28;20565;-72
2023/01/02 09:51:46;;;;;;;27.58;3.53;;;;;;;;;;4941817;28;20374;-74
2023/01/02 09:54:16;;;;;;;24.10;3.55;;;;;;;;;;4942147;28;20422;-72
2023/01/02 09:56:46;;;;;;;33.60;3.95;;;;;;;;;;4942078;28;20110;-73
2023/01/02 09:59:17;;;;;;;32.17;4.07;;;;;;;;;;4940530;28;20399;-74
2023/01/02 10:01:43;;;;;;;31.40;3.85;;;;;;;;;;4942006;28;20274;-73
2023/01/02 10:04:17;;;;;;;32.08;4.03;;;;;;;;;;4942233;28;20062;-73
2023/01/02 10:06:49;;;;;;;30.05;3.80;;;;;;;;;;4941419;28;20434;-73
2023/01/02 10:09:40;;;;;;;39.70;3.83;;;;;;;;;;4941804;28;20070;-72
2023/01/02 10:12:28;;;;;;;26.67;3.92;;;;;;;;;;4941955;28;20050;-71
2023/01/02 10:15:04;;;;;;;28.70;3.28;;;;;;;;;;4941515;28;20030;-73
2023/01/02 10:17:33;;;;;;;38.75;4.88;;;;;;;;;;4942156;28;20313;-72
2023/01/02 10:19:59;;;;;;;30.88;3.95;;;;;;;;;;4942660;28;20399;-73
2023/01/02 10:22:31;;;;;;;35.50;3.25;;;;;;;;;;4943033;28;20138;-74
2023/01/02 10:25:05;;;;;;;32.22;3.20;;;;;;;;;;4940415;28;20124;-73
2023/01/02 10:27:37;;;;;;;26.70;3.42;;;;;;;;;;4941599;28;20159;-74
2023/01/02 10:30:25;;;;;;;29.10;3.75;;;;;;;;;;5023688;28;20481;-73
2023/01/02 10:33:29;;;;;;;38.13;5.15;;;;;;;;;;4946164;28;20031;-74
2023/01/02 10:35:58;;;;;;;41.38;5.07;;;;;;;;;;4940624;28;20058;-73
2023/01/02 10:38:33;;;;;;;40.58;6.22;;;;;;;;;;4939805;28;20153;-73
2023/01/02 10:41:00;;;;;;;26.27;3.65;;;;;;;;;;4940858;28;20728;-73
2023/01/02 10:43:26;;;;;;;37.17;4.50;;;;;;;;;;4940752;28;20492;-72
2023/01/02 10:45:51;;;;;;;25.85;3.40;;;;;;;;;;4939647;28;20031;-73
2023/01/02 10:48:19;;;;;;;27.00;3.97;;;;;;;;;;4923949;28;20066;-72
2023/01/02 10:50:50;;;;;;;28.08;4.60;;;;;;;;;;4933132;28;20054;-72
2023/01/02 10:53:21;;;;;;;30.40;4.03;;;;;;;;;;4941069;28;20624;-72
2023/01/02 10:55:47;;;;;;;34.70;4.30;;;;;;;;;;4941294;28;20422;-73
2023/01/02 10:58:32;;;;;;;40.00;4.45;;;;;;;;;;4941120;28;20062;-73
2023/01/02 11:01:04;;;;;;;31.65;4.85;;;;;;;;;;4940617;28;20108;-74
2023/01/02 11:03:29;;;;;;;41.08;3.60;;;;;;;;;;4940801;28;20575;-74
2023/01/02 11:05:56;;;;;;;25.10;3.75;;;;;;;;;;4923787;28;20045;-72
2023/01/02 11:08:23;;;;;;;37.30;3.85;;;;;;;;;;4923677;28;20034;-73
2023/01/02 11:10:49;;;;;;;34.50;4.40;;;;;;;;;;4923153;28;20664;-73
2023/01/02 11:13:15;;;;;;;34.85;4.03;;;;;;;;;;4940925;28;20038;-71
2023/01/02 11:15:49;;;;;;;40.10;4.22;;;;;;;;;;4940852;28;20031;-72
2023/01/02 11:18:20;;;;;;;31.23;4.57;;;;;;;;;;4940209;28;20042;-72
2023/01/02 11:20:49;;;;;;;31.23;4.90;;;;;;;;;;4940012;28;20031;-72
2023/01/02 11:23:15;;;;;;;37.97;5.45;;;;;;;;;;4940247;28;20487;-72
2023/01/02 11:25:46;;;;;;;38.47;5.35;;;;;;;;;;4939907;28;20038;-72
2023/01/02 11:28:19;;;;;;;35.05;4.15;;;;;;;;;;4923392;28;20295;-73
2023/01/02 11:30:49;;;;;;;32.88;4.70;;;;;;;;;;4938313;28;20162;-73
2023/01/02 11:33:15;;;;;;;32.83;3.75;;;;;;;;;;4934072;28;20413;-72
2023/01/02 11:35:46;;;;;;;28.38;4.80;;;;;;;;;;4940969;28;20058;-73
2023/01/02 11:38:22;;;;;;;32.45;4.30;;;;;;;;;;4940434;28;20060;-72
2023/01/02 11:40:52;;;;;;;35.85;4.22;;;;;;;;;;4934148;28;20042;-74
2023/01/02 11:46:09;;;;;;;44.22;4.88;;;;;;;;;;4940349;28;20123;-73
2023/01/02 11:48:37;;;;;;;39.10;4.50;;;;;;;;;;4938941;28;20030;-74
2023/01/02 11:51:02;;;;;;;44.10;4.32;;;;;;;;;;4940238;28;20462;-71
2023/01/02 11:53:32;;;;;;;23.35;3.30;;;;;;;;;;4940246;28;20340;-73
2023/01/02 11:56:00;;;;;;;29.73;3.00;;;;;;;;;;4939627;28;20027;-71
2023/01/02 11:58:44;;;;;;;30.65;3.72;;;;;;;;;;4939837;28;20775;-72
2023/01/02 12:01:28;;;;;;;34.55;3.58;;;;;;;;;;4940170;28;20046;-71
2023/01/02 12:03:54;;;;;;;35.45;4.47;;;;;;;;;;4940305;28;20189;-74
2023/01/02 12:06:21;;;;;;;38.42;4.53;;;;;;;;;;4940668;28;20125;-72
2023/01/02 12:09:03;;;;;;;31.70;4.97;;;;;;;;;;4939791;28;20689;-72
2023/01/02 12:11:45;;;;;;;35.80;3.83;;;;;;;;;;4938963;28;20062;-72
2023/01/02 12:14:13;;;;;;;33.60;4.13;;;;;;;;;;4939743;28;20030;-73
2023/01/02 12:17:08;;;;;;;29.73;4.03;;;;;;;;;;4939961;28;20180;-73
2023/01/02 12:19:46;;;;;;;30.35;3.97;;;;;;;;;;4947372;28;20039;-73
2023/01/02 12:22:20;;;;;;;26.55;3.95;;;;;;;;;;4923247;28;20042;-71
2023/01/02 12:25:00;;;;;;;35.78;4.65;;;;;;;;;;4939706;28;20289;-72
2023/01/02 12:27:29;;;;;;;22.55;3.55;;;;;;;;;;4922745;28;20080;-73
2023/01/02 12:30:06;;;;;;;32.50;3.92;;;;;;;;;;4922236;28;20027;-73
2023/01/02 12:32:50;;;;;;;24.92;3.40;;;;;;;;;;4922411;28;20027;-74
2023/01/02 12:35:24;;;;;;;29.27;3.63;;;;;;;;;;4939617;28;20027;-72
2023/01/02 12:37:49;;;;;;;26.45;4.03;;;;;;;;;;4941378;28;20034;-74
2023/01/02 12:40:33;;;;;;;29.40;3.58;;;;;;;;;;4943452;28;20563;-72
2023/01/02 12:43:17;;;;;;;22.95;3.00;;;;;;;;;;4943075;28;20096;-72
2023/01/02 12:45:50;;;;;;;23.10;3.50;;;;;;;;;;4942557;28;20619;-72
2023/01/02 12:48:38;;;;;;;30.58;3.63;;;;;;;;;;4943037;28;20023;-74
2023/01/02 12:51:22;;;;;;;36.85;4.43;;;;;;;;;;4942783;28;20030;-73
2023/01/02 12:53:56;;;;;;;31.33;3.85;;;;;;;;;;4942777;28;20058;-73
2023/01/02 12:56:42;;;;;;;26.85;3.80;;;;;;;;;;4924949;28;20030;-72
2023/01/02 12:59:14;;;;;;;31.35;4.32;;;;;;;;;;4924898;28;20367;-73
2023/01/02 13:01:47;;;;;;;26.20;3.55;;;;;;;;;;4942565;28;20664;-73
2023/01/02 13:04:22;;;;;;;32.08;4.57;;;;;;;;;;4942615;28;20035;-72
2023/01/02 13:06:58;;;;;;;21.02;3.22;;;;;;;;;;4942906;28;20596;-73
2023/01/02 13:09:26;;;;;;;34.05;3.75;;;;;;;;;;4942732;28;20026;-72
2023/01/02 13:12:04;;;;;;;30.33;4.00;;;;;;;;;;4942544;28;20289;-73
2023/01/02 13:14:38;;;;;;;27.70;3.55;;;;;;;;;;4924928;28;20592;-73
2023/01/02 13:17:11;;;;;;;23.15;3.05;;;;;;;;;;4942176;28;20042;-74
2023/01/02 13:19:44;;;;;;;20.80;3.60;;;;;;;;;;4924971;28;20451;-72
2023/01/02 13:22:21;;;;;;;13.25;2.90;;;;;;;;;;4942472;28;20030;-73
2023/01/02 13:24:49;;;;;;;22.33;3.53;;;;;;;;;;4942910;28;20023;-73
2023/01/02 13:27:15;;;;;;;22.85;3.53;;;;;;;;;;4942803;28;20197;-72
2023/01/02 13:29:44;;;;;;;22.85;3.67;;;;;;;;;;4942919;28;20545;-73
2023/01/02 13:32:13;;;;;;;23.75;3.17;;;;;;;;;;4942617;28;20034;-73
2023/01/02 13:34:47;;;;;;;21.25;3.00;;;;;;;;;;4942800;28;20126;-74
2023/01/02 13:37:14;;;;;;;16.88;3.13;;;;;;;;;;4942738;28;20027;-74
2023/01/02 13:39:39;;;;;;;23.02;3.10;;;;;;;;;;4942967;28;20038;-74
2023/01/02 13:44:52;;;;;;;14.52;2.70;;;;;;;;;;4939242;28;20755;-74
2023/01/02 13:47:21;;;;;;;23.95;3.40;;;;;;;;;;4924463;28;20031;-74
2023/01/02 13:50:08;;;;;;;29.88;3.13;;;;;;;;;;4923220;28;20031;-74
2023/01/02 13:52:33;;;;;;;18.08;2.88;;;;;;;;;;4923290;29;20031;-74
2023/01/02 13:55:19;;;;;;;16.08;2.40;;;;;;;;;;4918468;28;20043;-74
2023/01/02 13:57:45;;;;;;;22.05;3.10;;;;;;;;;;4904887;29;20158;-73
2023/01/02 14:00:13;;;;;;;17.35;2.97;;;;;;;;;;4904589;29;21189;-73
2023/01/02 14:03:01;;;;;;;20.40;2.85;;;;;;;;;;4904142;29;20057;-74
2023/01/02 14:05:45;;;;;;;33.97;3.53;;;;;;;;;;4904320;29;20032;-74
2023/01/02 14:08:22;;;;;;;17.33;2.95;;;;;;;;;;4887006;29;20453;-72
2023/01/02 14:10:49;;;;;;;20.75;2.60;;;;;;;;;;4902627;29;20170;-73
2023/01/02 14:13:18;;;;;;;19.08;2.83;;;;;;;;;;4904508;29;20340;-73
2023/01/02 14:16:00;;;;;;;14.77;2.50;;;;;;;;;;4905180;29;20684;-75
2023/01/02 14:18:26;;;;;;;;;;;;;;;;;;4904758;29;20264;-74
2023/01/02 14:20:53;;;;;;;18.67;2.50;;;;;;;;;;4931068;28;19926;-74
2023/01/02 14:23:27;;;;;;;17.20;2.58;;;;;;;;;;4922959;28;20055;-75
2023/01/02 14:25:55;;;;;;;22.23;2.92;;;;;;;;;;5004799;28;20073;-75
2023/01/02 14:28:22;;;;;;;20.00;2.85;;;;;;;;;;4923394;29;20066;-73
2023/01/02 14:30:48;;;;;;;15.93;3.05;;;;;;;;;;4922418;29;20105;-74
2023/01/02 14:33:21;;;;;;;17.45;3.20;;;;;;;;;;4923665;28;20051;-73
2023/01/02 14:35:51;;;;;;;18.83;2.53;;;;;;;;;;4920562;28;20039;-74
2023/01/02 14:38:18;;;;;;;15.13;2.33;;;;;;;;;;4920994;28;20035;-73
2023/01/02 14:40:49;;;;;;;19.70;2.78;;;;;;;;;;5002412;28;20061;-74
2023/01/02 14:43:35;;;;;;;23.52;2.97;;;;;;;;;;4922749;29;20443;-73
2023/01/02 14:46:08;;;;;;;17.60;2.58;;;;;;;;;;4932482;28;20027;-75
2023/01/02 14:48:36;;;;;;;21.27;3.20;;;;;;;;;;4922655;29;20667;-73